sensor_id;sensor_type;location;lat;lon;timestamp;P1;durP1;ratioP1;P2;durP2;ratioP2
58015;SDS011;43809;52.110;20.964;2022-09-01T00:01:36;0.73;;;0.40;;
58015;SDS011;43809;52.110;20.964;2022-09-01T00:03:38;1.05;;;0.50;;
58015;SDS011;43809;52.110;20.964;2022-09-01T00:05:38;0.40;;;0.40;;
58015;SDS011;43809;52.110;20.964;2022-09-01T00:07:40;0.20;;;0.20;;
58015;SDS011;43809;52.110;20.964;2022-09-01T00:09:40;0.43;;;0.28;;
58015;SDS011;43809;52.110;20.964;2022-09-01T00:11:41;0.55;;;0.30;;
58015;SDS011;43809;52.110;20.964;2022-09-01T00:13:46;0.65;;;0.30;;
58015;SDS011;43809;52.110;20.964;2022-09-01T00:15:46;0.30;;;0.22;;
58015;SDS011;43809;52.110;20.964;2022-09-01T00:17:46;0.37;;;0.37;;
58015;SDS011;43809;52.110;20.964;2022-09-01T00:19:48;0.47;;;0.40;;
58015;SDS011;43809;52.110;20.964;2022-09-01T00:21:48;1.85;;;0.50;;
58015;SDS011;43809;52.110;20.964;2022-09-01T00:23:48;0.63;;;0.40;;
58015;SDS011;43809;52.110;20.964;2022-09-01T00:27:52;0.50;;;0.30;;
58015;SDS011;43809;52.110;20.964;2022-09-01T00:29:52;0.50;;;0.30;;
58015;SDS011;43809;52.110;20.964;2022-09-01T00:31:52;0.47;;;0.38;;
58015;SDS011;43809;52.110;20.964;2022-09-01T00:33:53;0.40;;;0.30;;
58015;SDS011;43809;52.110;20.964;2022-09-01T00:35:53;0.30;;;0.30;;
58015;SDS011;43809;52.110;20.964;2022-09-01T00:37:53;0.40;;;0.32;;
58015;SDS011;43809;52.110;20.964;2022-09-01T00:39:53;0.75;;;0.40;;
58015;SDS011;43809;52.110;20.964;2022-09-01T00:41:55;0.45;;;0.40;;
58015;SDS011;43809;52.110;20.964;2022-09-01T00:43:58;0.60;;;0.40;;
58015;SDS011;43809;52.110;20.964;2022-09-01T00:45:59;0.60;;;0.50;;
58015;SDS011;43809;52.110;20.964;2022-09-01T00:47:59;1.20;;;0.57;;
58015;SDS011;43809;52.110;20.964;2022-09-01T00:50:04;0.60;;;0.60;;
58015;SDS011;43809;52.110;20.964;2022-09-01T00:54:05;1.13;;;0.40;;
58015;SDS011;43809;52.110;20.964;2022-09-01T00:56:07;0.85;;;0.32;;
58015;SDS011;43809;52.110;20.964;2022-09-01T00:58:10;0.75;;;0.35;;
58015;SDS011;43809;52.110;20.964;2022-09-01T01:00:15;0.60;;;0.50;;
58015;SDS011;43809;52.110;20.964;2022-09-01T01:02:20;0.25;;;0.25;;
58015;SDS011;43809;52.110;20.964;2022-09-01T01:04:21;0.40;;;0.40;;
58015;SDS011;43809;52.110;20.964;2022-09-01T01:06:21;0.85;;;0.55;;
58015;SDS011;43809;52.110;20.964;2022-09-01T01:08:28;0.68;;;0.43;;
58015;SDS011;43809;52.110;20.964;2022-09-01T01:10:38;0.32;;;0.30;;
58015;SDS011;43809;52.110;20.964;2022-09-01T01:12:45;0.30;;;0.30;;
58015;SDS011;43809;52.110;20.964;2022-09-01T01:14:47;0.52;;;0.30;;
58015;SDS011;43809;52.110;20.964;2022-09-01T01:16:49;0.95;;;0.30;;
58015;SDS011;43809;52.110;20.964;2022-09-01T01:18:50;0.40;;;0.20;;
58015;SDS011;43809;52.110;20.964;2022-09-01T01:20:57;0.63;;;0.40;;
58015;SDS011;43809;52.110;20.964;2022-09-01T01:25:40;1.05;;;0.60;;
58015;SDS011;43809;52.110;20.964;2022-09-01T01:27:41;0.95;;;0.45;;
58015;SDS011;43809;52.110;20.964;2022-09-01T01:29:41;1.25;;;0.52;;
58015;SDS011;43809;52.110;20.964;2022-09-01T01:31:42;0.55;;;0.40;;
58015;SDS011;43809;52.110;20.964;2022-09-01T01:33:48;0.80;;;0.40;;
58015;SDS011;43809;52.110;20.964;2022-09-01T01:35:49;1.38;;;0.40;;
58015;SDS011;43809;52.110;20.964;2022-09-01T01:37:50;0.90;;;0.30;;
58015;SDS011;43809;52.110;20.964;2022-09-01T01:39:50;0.70;;;0.47;;
58015;SDS011;43809;52.110;20.964;2022-09-01T01:41:51;0.25;;;0.25;;
58015;SDS011;43809;52.110;20.964;2022-09-01T01:43:52;1.00;;;0.47;;
58015;SDS011;43809;52.110;20.964;2022-09-01T01:45:53;0.93;;;0.30;;
58015;SDS011;43809;52.110;20.964;2022-09-01T01:47:53;0.52;;;0.40;;
58015;SDS011;43809;52.110;20.964;2022-09-01T01:49:55;0.57;;;0.40;;
58015;SDS011;43809;52.110;20.964;2022-09-01T01:51:57;0.57;;;0.30;;
58015;SDS011;43809;52.110;20.964;2022-09-01T01:53:58;0.60;;;0.40;;
58015;SDS011;43809;52.110;20.964;2022-09-01T01:58:01;0.82;;;0.40;;
58015;SDS011;43809;52.110;20.964;2022-09-01T02:00:10;0.30;;;0.30;;
58015;SDS011;43809;52.110;20.964;2022-09-01T02:02:11;0.30;;;0.30;;
58015;SDS011;43809;52.110;20.964;2022-09-01T02:04:11;0.20;;;0.20;;
58015;SDS011;43809;52.110;20.964;2022-09-01T02:06:14;0.40;;;0.32;;
58015;SDS011;43809;52.110;20.964;2022-09-01T02:08:14;0.75;;;0.50;;
58015;SDS011;43809;52.110;20.964;2022-09-01T02:10:19;0.70;;;0.60;;
58015;SDS011;43809;52.110;20.964;2022-09-01T02:12:26;0.65;;;0.55;;
58015;SDS011;43809;52.110;20.964;2022-09-01T02:14:26;0.57;;;0.57;;
58015;SDS011;43809;52.110;20.964;2022-09-01T02:16:28;0.90;;;0.50;;
58015;SDS011;43809;52.110;20.964;2022-09-01T02:18:30;0.52;;;0.40;;
58015;SDS011;43809;52.110;20.964;2022-09-01T02:20:34;0.60;;;0.60;;
58015;SDS011;43809;52.110;20.964;2022-09-01T02:22:34;0.63;;;0.30;;
58015;SDS011;43809;52.110;20.964;2022-09-01T02:24:37;0.65;;;0.40;;
58015;SDS011;43809;52.110;20.964;2022-09-01T02:26:38;0.93;;;0.30;;
58015;SDS011;43809;52.110;20.964;2022-09-01T02:28:39;0.20;;;0.20;;
58015;SDS011;43809;52.110;20.964;2022-09-01T02:30:44;0.45;;;0.43;;
58015;SDS011;43809;52.110;20.964;2022-09-01T02:32:45;0.20;;;0.20;;
58015;SDS011;43809;52.110;20.964;2022-09-01T02:34:47;0.30;;;0.30;;
58015;SDS011;43809;52.110;20.964;2022-09-01T02:36:53;0.57;;;0.40;;
58015;SDS011;43809;52.110;20.964;2022-09-01T02:38:53;0.75;;;0.30;;
58015;SDS011;43809;52.110;20.964;2022-09-01T02:40:56;0.98;;;0.30;;
58015;SDS011;43809;52.110;20.964;2022-09-01T02:42:57;0.47;;;0.38;;
58015;SDS011;43809;52.110;20.964;2022-09-01T02:44:58;0.40;;;0.40;;
58015;SDS011;43809;52.110;20.964;2022-09-01T02:46:59;1.67;;;0.53;;
58015;SDS011;43809;52.110;20.964;2022-09-01T02:49:00;0.60;;;0.30;;
58015;SDS011;43809;52.110;20.964;2022-09-01T02:51:02;0.70;;;0.40;;
58015;SDS011;43809;52.110;20.964;2022-09-01T02:53:03;1.13;;;0.40;;
58015;SDS011;43809;52.110;20.964;2022-09-01T02:55:08;0.22;;;0.22;;
58015;SDS011;43809;52.110;20.964;2022-09-01T02:57:08;0.35;;;0.30;;
58015;SDS011;43809;52.110;20.964;2022-09-01T02:59:09;0.30;;;0.30;;
58015;SDS011;43809;52.110;20.964;2022-09-01T03:01:19;0.30;;;0.30;;
58015;SDS011;43809;52.110;20.964;2022-09-01T03:03:21;0.40;;;0.30;;
58015;SDS011;43809;52.110;20.964;2022-09-01T03:05:23;0.20;;;0.20;;
58015;SDS011;43809;52.110;20.964;2022-09-01T03:07:27;0.20;;;0.20;;
58015;SDS011;43809;52.110;20.964;2022-09-01T03:09:29;0.30;;;0.30;;
58015;SDS011;43809;52.110;20.964;2022-09-01T03:13:31;0.88;;;0.50;;
58015;SDS011;43809;52.110;20.964;2022-09-01T03:15:31;0.60;;;0.50;;
58015;SDS011;43809;52.110;20.964;2022-09-01T03:17:34;0.65;;;0.40;;
58015;SDS011;43809;52.110;20.964;2022-09-01T03:19:34;1.13;;;0.70;;
58015;SDS011;43809;52.110;20.964;2022-09-01T03:21:40;0.45;;;0.40;;
58015;SDS011;43809;52.110;20.964;2022-09-01T03:23:41;0.43;;;0.40;;
58015;SDS011;43809;52.110;20.964;2022-09-01T03:25:42;0.35;;;0.30;;
58015;SDS011;43809;52.110;20.964;2022-09-01T03:27:42;0.28;;;0.25;;
58015;SDS011;43809;52.110;20.964;2022-09-01T03:29:42;0.20;;;0.20;;
58015;SDS011;43809;52.110;20.964;2022-09-01T03:31:42;0.20;;;0.20;;
58015;SDS011;43809;52.110;20.964;2022-09-01T03:33:43;0.43;;;0.40;;
58015;SDS011;43809;52.110;20.964;2022-09-01T03:35:43;0.30;;;0.30;;
58015;SDS011;43809;52.110;20.964;2022-09-01T03:37:43;1.10;;;0.40;;
58015;SDS011;43809;52.110;20.964;2022-09-01T03:39:45;0.68;;;0.47;;
58015;SDS011;43809;52.110;20.964;2022-09-01T03:41:46;0.40;;;0.40;;
58015;SDS011;43809;52.110;20.964;2022-09-01T03:43:46;0.40;;;0.40;;
58015;SDS011;43809;52.110;20.964;2022-09-01T03:45:46;0.43;;;0.40;;
58015;SDS011;43809;52.110;20.964;2022-09-01T03:47:47;0.30;;;0.30;;
58015;SDS011;43809;52.110;20.964;2022-09-01T03:49:47;0.47;;;0.32;;
58015;SDS011;43809;52.110;20.964;2022-09-01T03:51:48;0.52;;;0.30;;
58015;SDS011;43809;52.110;20.964;2022-09-01T03:53:50;0.50;;;0.50;;
58015;SDS011;43809;52.110;20.964;2022-09-01T03:55:53;1.23;;;0.25;;
58015;SDS011;43809;52.110;20.964;2022-09-01T03:57:58;0.30;;;0.30;;
58015;SDS011;43809;52.110;20.964;2022-09-01T03:59:59;0.30;;;0.20;;
58015;SDS011;43809;52.110;20.964;2022-09-01T04:02:00;0.40;;;0.40;;
58015;SDS011;43809;52.110;20.964;2022-09-01T04:04:01;0.60;;;0.30;;
58015;SDS011;43809;52.110;20.964;2022-09-01T04:06:02;0.30;;;0.30;;
58015;SDS011;43809;52.110;20.964;2022-09-01T04:08:06;0.30;;;0.30;;
58015;SDS011;43809;52.110;20.964;2022-09-01T04:10:06;0.35;;;0.30;;
58015;SDS011;43809;52.110;20.964;2022-09-01T04:12:10;0.32;;;0.32;;
58015;SDS011;43809;52.110;20.964;2022-09-01T04:14:14;0.30;;;0.30;;
58015;SDS011;43809;52.110;20.964;2022-09-01T04:16:16;0.50;;;0.50;;
58015;SDS011;43809;52.110;20.964;2022-09-01T04:18:36;0.57;;;0.50;;
58015;SDS011;43809;52.110;20.964;2022-09-01T04:20:39;0.77;;;0.52;;
58015;SDS011;43809;52.110;20.964;2022-09-01T04:22:47;0.60;;;0.60;;
58015;SDS011;43809;52.110;20.964;2022-09-01T04:24:49;0.68;;;0.60;;
58015;SDS011;43809;52.110;20.964;2022-09-01T04:26:50;1.07;;;0.70;;
58015;SDS011;43809;52.110;20.964;2022-09-01T04:28:50;0.60;;;0.50;;
58015;SDS011;43809;52.110;20.964;2022-09-01T04:30:52;0.50;;;0.30;;
58015;SDS011;43809;52.110;20.964;2022-09-01T04:32:54;0.40;;;0.40;;
58015;SDS011;43809;52.110;20.964;2022-09-01T04:34:55;0.70;;;0.40;;
58015;SDS011;43809;52.110;20.964;2022-09-01T04:36:55;0.98;;;0.40;;
58015;SDS011;43809;52.110;20.964;2022-09-01T04:38:57;0.40;;;0.40;;
58015;SDS011;43809;52.110;20.964;2022-09-01T04:40:58;0.50;;;0.50;;
58015;SDS011;43809;52.110;20.964;2022-09-01T04:43:01;0.55;;;0.40;;
58015;SDS011;43809;52.110;20.964;2022-09-01T04:45:02;1.33;;;0.90;;
58015;SDS011;43809;52.110;20.964;2022-09-01T04:47:03;1.83;;;0.70;;
58015;SDS011;43809;52.110;20.964;2022-09-01T04:49:09;1.20;;;0.65;;
58015;SDS011;43809;52.110;20.964;2022-09-01T04:51:10;1.73;;;0.80;;
58015;SDS011;43809;52.110;20.964;2022-09-01T04:53:11;1.67;;;1.00;;
58015;SDS011;43809;52.110;20.964;2022-09-01T04:55:11;2.03;;;1.00;;
58015;SDS011;43809;52.110;20.964;2022-09-01T04:57:17;1.55;;;1.08;;
58015;SDS011;43809;52.110;20.964;2022-09-01T04:59:18;1.80;;;0.90;;
58015;SDS011;43809;52.110;20.964;2022-09-01T05:01:20;0.77;;;0.77;;
58015;SDS011;43809;52.110;20.964;2022-09-01T05:03:20;1.30;;;0.85;;
58015;SDS011;43809;52.110;20.964;2022-09-01T05:05:22;1.33;;;0.95;;
58015;SDS011;43809;52.110;20.964;2022-09-01T05:07:23;2.43;;;0.90;;
58015;SDS011;43809;52.110;20.964;2022-09-01T05:09:23;1.98;;;0.80;;
58015;SDS011;43809;52.110;20.964;2022-09-01T05:11:26;3.50;;;0.90;;
58015;SDS011;43809;52.110;20.964;2022-09-01T05:13:26;1.77;;;0.90;;
58015;SDS011;43809;52.110;20.964;2022-09-01T05:15:28;2.03;;;1.02;;
58015;SDS011;43809;52.110;20.964;2022-09-01T05:17:29;2.92;;;1.45;;
58015;SDS011;43809;52.110;20.964;2022-09-01T05:19:30;2.47;;;1.35;;
58015;SDS011;43809;52.110;20.964;2022-09-01T05:21:30;2.42;;;1.38;;
58015;SDS011;43809;52.110;20.964;2022-09-01T05:23:30;2.83;;;1.13;;
58015;SDS011;43809;52.110;20.964;2022-09-01T05:25:36;2.92;;;1.60;;
58015;SDS011;43809;52.110;20.964;2022-09-01T05:27:38;3.88;;;1.40;;
58015;SDS011;43809;52.110;20.964;2022-09-01T05:29:38;1.60;;;1.05;;
58015;SDS011;43809;52.110;20.964;2022-09-01T05:31:40;2.30;;;1.20;;
58015;SDS011;43809;52.110;20.964;2022-09-01T05:33:41;2.38;;;1.42;;
58015;SDS011;43809;52.110;20.964;2022-09-01T05:35:52;1.92;;;1.30;;
58015;SDS011;43809;52.110;20.964;2022-09-01T05:37:55;2.63;;;1.35;;
58015;SDS011;43809;52.110;20.964;2022-09-01T05:39:57;3.95;;;1.60;;
58015;SDS011;43809;52.110;20.964;2022-09-01T05:41:58;3.15;;;1.38;;
58015;SDS011;43809;52.110;20.964;2022-09-01T05:43:58;6.22;;;1.63;;
58015;SDS011;43809;52.110;20.964;2022-09-01T05:45:59;2.67;;;1.83;;
58015;SDS011;43809;52.110;20.964;2022-09-01T05:48:03;2.58;;;1.00;;
58015;SDS011;43809;52.110;20.964;2022-09-01T05:50:04;3.20;;;1.30;;
58015;SDS011;43809;52.110;20.964;2022-09-01T05:52:06;2.85;;;1.05;;
58015;SDS011;43809;52.110;20.964;2022-09-01T05:54:08;2.93;;;1.20;;
58015;SDS011;43809;52.110;20.964;2022-09-01T05:56:09;2.58;;;1.25;;
58015;SDS011;43809;52.110;20.964;2022-09-01T05:58:12;2.60;;;1.17;;
58015;SDS011;43809;52.110;20.964;2022-09-01T06:00:15;4.60;;;1.35;;
58015;SDS011;43809;52.110;20.964;2022-09-01T06:02:17;2.20;;;1.20;;
58015;SDS011;43809;52.110;20.964;2022-09-01T06:04:17;2.23;;;0.90;;
58015;SDS011;43809;52.110;20.964;2022-09-01T06:06:17;6.03;;;1.27;;
58015;SDS011;43809;52.110;20.964;2022-09-01T06:08:19;1.30;;;0.90;;
58015;SDS011;43809;52.110;20.964;2022-09-01T06:10:20;3.60;;;1.27;;
58015;SDS011;43809;52.110;20.964;2022-09-01T06:12:20;2.20;;;1.20;;
58015;SDS011;43809;52.110;20.964;2022-09-01T06:16:23;4.47;;;1.20;;
58015;SDS011;43809;52.110;20.964;2022-09-01T06:18:23;2.33;;;1.17;;
58015;SDS011;43809;52.110;20.964;2022-09-01T06:20:24;3.50;;;1.00;;
58015;SDS011;43809;52.110;20.964;2022-09-01T06:22:25;4.50;;;1.30;;
58015;SDS011;43809;52.110;20.964;2022-09-01T06:24:25;3.15;;;1.20;;
58015;SDS011;43809;52.110;20.964;2022-09-01T06:26:28;1.80;;;0.88;;
58015;SDS011;43809;52.110;20.964;2022-09-01T06:28:28;1.55;;;0.90;;
58015;SDS011;43809;52.110;20.964;2022-09-01T06:30:29;3.15;;;0.95;;
58015;SDS011;43809;52.110;20.964;2022-09-01T06:32:29;2.15;;;0.80;;
58015;SDS011;43809;52.110;20.964;2022-09-01T06:34:29;1.57;;;0.80;;
58015;SDS011;43809;52.110;20.964;2022-09-01T06:36:33;3.08;;;1.10;;
58015;SDS011;43809;52.110;20.964;2022-09-01T06:38:35;1.52;;;0.70;;
58015;SDS011;43809;52.110;20.964;2022-09-01T06:40:36;1.55;;;0.80;;
58015;SDS011;43809;52.110;20.964;2022-09-01T06:42:38;1.17;;;0.80;;
58015;SDS011;43809;52.110;20.964;2022-09-01T06:44:40;1.20;;;0.60;;
58015;SDS011;43809;52.110;20.964;2022-09-01T06:46:40;1.53;;;0.73;;
58015;SDS011;43809;52.110;20.964;2022-09-01T06:48:40;0.97;;;0.70;;
58015;SDS011;43809;52.110;20.964;2022-09-01T06:50:45;0.80;;;0.60;;
58015;SDS011;43809;52.110;20.964;2022-09-01T06:52:45;2.20;;;1.00;;
58015;SDS011;43809;52.110;20.964;2022-09-01T06:54:45;2.13;;;1.07;;
58015;SDS011;43809;52.110;20.964;2022-09-01T06:56:45;3.20;;;0.90;;
58015;SDS011;43809;52.110;20.964;2022-09-01T06:58:46;3.25;;;0.80;;
58015;SDS011;43809;52.110;20.964;2022-09-01T07:00:49;2.00;;;0.90;;
58015;SDS011;43809;52.110;20.964;2022-09-01T07:02:54;1.87;;;0.70;;
58015;SDS011;43809;52.110;20.964;2022-09-01T07:04:55;2.15;;;0.80;;
58015;SDS011;43809;52.110;20.964;2022-09-01T07:06:56;4.37;;;1.27;;
58015;SDS011;43809;52.110;20.964;2022-09-01T07:08:57;3.03;;;0.80;;
58015;SDS011;43809;52.110;20.964;2022-09-01T07:10:57;3.72;;;1.02;;
58015;SDS011;43809;52.110;20.964;2022-09-01T07:12:58;1.70;;;0.80;;
58015;SDS011;43809;52.110;20.964;2022-09-01T07:15:00;2.70;;;0.80;;
58015;SDS011;43809;52.110;20.964;2022-09-01T07:17:01;2.00;;;0.55;;
58015;SDS011;43809;52.110;20.964;2022-09-01T07:19:01;0.70;;;0.50;;
58015;SDS011;43809;52.110;20.964;2022-09-01T07:21:04;0.55;;;0.50;;
58015;SDS011;43809;52.110;20.964;2022-09-01T07:23:07;2.78;;;0.68;;
58015;SDS011;43809;52.110;20.964;2022-09-01T07:25:07;2.75;;;0.77;;
58015;SDS011;43809;52.110;20.964;2022-09-01T07:27:11;1.90;;;0.65;;
58015;SDS011;43809;52.110;20.964;2022-09-01T07:29:11;1.45;;;0.57;;
58015;SDS011;43809;52.110;20.964;2022-09-01T07:31:25;0.60;;;0.30;;
58015;SDS011;43809;52.110;20.964;2022-09-01T07:33:25;1.05;;;0.40;;
58015;SDS011;43809;52.110;20.964;2022-09-01T07:35:26;0.28;;;0.28;;
58015;SDS011;43809;52.110;20.964;2022-09-01T07:37:26;0.67;;;0.50;;
58015;SDS011;43809;52.110;20.964;2022-09-01T07:39:26;1.38;;;0.35;;
58015;SDS011;43809;52.110;20.964;2022-09-01T07:41:27;2.07;;;0.50;;
58015;SDS011;43809;52.110;20.964;2022-09-01T07:43:27;1.00;;;0.40;;
58015;SDS011;43809;52.110;20.964;2022-09-01T07:45:28;2.58;;;0.30;;
58015;SDS011;43809;52.110;20.964;2022-09-01T07:47:29;0.97;;;0.37;;
58015;SDS011;43809;52.110;20.964;2022-09-01T07:49:29;0.70;;;0.40;;
58015;SDS011;43809;52.110;20.964;2022-09-01T07:51:30;2.25;;;0.63;;
58015;SDS011;43809;52.110;20.964;2022-09-01T07:53:33;0.57;;;0.32;;
58015;SDS011;43809;52.110;20.964;2022-09-01T07:55:35;2.38;;;0.60;;
58015;SDS011;43809;52.110;20.964;2022-09-01T07:57:39;1.85;;;0.40;;
58015;SDS011;43809;52.110;20.964;2022-09-01T07:59:41;0.38;;;0.30;;
58015;SDS011;43809;52.110;20.964;2022-09-01T08:01:42;0.55;;;0.40;;
58015;SDS011;43809;52.110;20.964;2022-09-01T08:03:42;1.90;;;0.50;;
58015;SDS011;43809;52.110;20.964;2022-09-01T08:05:42;1.60;;;0.40;;
58015;SDS011;43809;52.110;20.964;2022-09-01T08:07:43;0.80;;;0.30;;
58015;SDS011;43809;52.110;20.964;2022-09-01T08:09:46;1.15;;;0.50;;
58015;SDS011;43809;52.110;20.964;2022-09-01T08:11:46;1.20;;;0.40;;
58015;SDS011;43809;52.110;20.964;2022-09-01T08:13:46;0.50;;;0.30;;
58015;SDS011;43809;52.110;20.964;2022-09-01T08:15:46;0.93;;;0.40;;
58015;SDS011;43809;52.110;20.964;2022-09-01T08:17:46;0.65;;;0.40;;
58015;SDS011;43809;52.110;20.964;2022-09-01T08:19:47;1.13;;;0.30;;
58015;SDS011;43809;52.110;20.964;2022-09-01T08:21:47;1.17;;;0.30;;
58015;SDS011;43809;52.110;20.964;2022-09-01T08:23:49;0.50;;;0.25;;
58015;SDS011;43809;52.110;20.964;2022-09-01T08:25:49;1.17;;;0.43;;
58015;SDS011;43809;52.110;20.964;2022-09-01T08:27:49;1.40;;;0.30;;
58015;SDS011;43809;52.110;20.964;2022-09-01T08:29:50;4.53;;;0.52;;
58015;SDS011;43809;52.110;20.964;2022-09-01T08:31:50;0.40;;;0.40;;
58015;SDS011;43809;52.110;20.964;2022-09-01T08:33:53;0.43;;;0.20;;
58015;SDS011;43809;52.110;20.964;2022-09-01T08:35:54;1.33;;;0.47;;
58015;SDS011;43809;52.110;20.964;2022-09-01T08:37:56;3.40;;;0.50;;
58015;SDS011;43809;52.110;20.964;2022-09-01T08:39:57;2.85;;;0.40;;
58015;SDS011;43809;52.110;20.964;2022-09-01T08:46:08;1.67;;;0.40;;
58015;SDS011;43809;52.110;20.964;2022-09-01T08:50:13;1.63;;;0.30;;
58015;SDS011;43809;52.110;20.964;2022-09-01T08:54:47;1.58;;;0.43;;
58015;SDS011;43809;52.110;20.964;2022-09-01T08:58:48;0.38;;;0.38;;
58015;SDS011;43809;52.110;20.964;2022-09-01T09:00:56;1.17;;;0.30;;
58015;SDS011;43809;52.110;20.964;2022-09-01T09:05:21;1.02;;;0.50;;
58015;SDS011;43809;52.110;20.964;2022-09-01T09:07:38;0.75;;;0.40;;
58015;SDS011;43809;52.110;20.964;2022-09-01T09:09:58;1.20;;;0.55;;
58015;SDS011;43809;52.110;20.964;2022-09-01T09:16:10;1.38;;;0.60;;
58015;SDS011;43809;52.110;20.964;2022-09-01T09:20:15;0.30;;;0.30;;
58015;SDS011;43809;52.110;20.964;2022-09-01T09:22:16;0.80;;;0.30;;
58015;SDS011;43809;52.110;20.964;2022-09-01T09:24:25;1.52;;;0.38;;
58015;SDS011;43809;52.110;20.964;2022-09-01T09:26:28;1.60;;;0.52;;
58015;SDS011;43809;52.110;20.964;2022-09-01T09:28:29;0.43;;;0.30;;
58015;SDS011;43809;52.110;20.964;2022-09-01T09:30:29;0.73;;;0.40;;
58015;SDS011;43809;52.110;20.964;2022-09-01T09:32:45;0.38;;;0.38;;
58015;SDS011;43809;52.110;20.964;2022-09-01T09:34:57;1.00;;;0.40;;
58015;SDS011;43809;52.110;20.964;2022-09-01T09:39:25;1.60;;;0.50;;
58015;SDS011;43809;52.110;20.964;2022-09-01T09:41:25;0.90;;;0.50;;
58015;SDS011;43809;52.110;20.964;2022-09-01T09:43:26;0.87;;;0.30;;
58015;SDS011;43809;52.110;20.964;2022-09-01T09:45:32;0.30;;;0.30;;
58015;SDS011;43809;52.110;20.964;2022-09-01T09:47:37;0.75;;;0.40;;
58015;SDS011;43809;52.110;20.964;2022-09-01T09:49:47;0.55;;;0.20;;
58015;SDS011;43809;52.110;20.964;2022-09-01T09:51:49;0.57;;;0.30;;
58015;SDS011;43809;52.110;20.964;2022-09-01T09:53:49;0.95;;;0.50;;
58015;SDS011;43809;52.110;20.964;2022-09-01T09:55:51;0.40;;;0.27;;
58015;SDS011;43809;52.110;20.964;2022-09-01T09:57:56;0.65;;;0.20;;
58015;SDS011;43809;52.110;20.964;2022-09-01T10:04:32;0.75;;;0.40;;
58015;SDS011;43809;52.110;20.964;2022-09-01T10:06:34;0.80;;;0.35;;
58015;SDS011;43809;52.110;20.964;2022-09-01T10:08:36;1.40;;;0.30;;
58015;SDS011;43809;52.110;20.964;2022-09-01T10:10:43;0.80;;;0.30;;
58015;SDS011;43809;52.110;20.964;2022-09-01T10:12:45;0.30;;;0.30;;
58015;SDS011;43809;52.110;20.964;2022-09-01T10:14:53;0.20;;;0.20;;
58015;SDS011;43809;52.110;20.964;2022-09-01T10:17:05;0.77;;;0.40;;
58015;SDS011;43809;52.110;20.964;2022-09-01T10:19:10;0.50;;;0.30;;
58015;SDS011;43809;52.110;20.964;2022-09-01T10:21:15;0.68;;;0.20;;
58015;SDS011;43809;52.110;20.964;2022-09-01T10:23:17;0.68;;;0.30;;
58015;SDS011;43809;52.110;20.964;2022-09-01T10:25:19;1.80;;;0.32;;
58015;SDS011;43809;52.110;20.964;2022-09-01T10:27:23;0.50;;;0.20;;
58015;SDS011;43809;52.110;20.964;2022-09-01T10:29:34;0.30;;;0.30;;
58015;SDS011;43809;52.110;20.964;2022-09-01T10:31:35;0.30;;;0.20;;
58015;SDS011;43809;52.110;20.964;2022-09-01T10:33:36;1.02;;;0.35;;
58015;SDS011;43809;52.110;20.964;2022-09-01T10:35:38;0.30;;;0.30;;
58015;SDS011;43809;52.110;20.964;2022-09-01T10:37:40;4.68;;;0.50;;
58015;SDS011;43809;52.110;20.964;2022-09-01T10:42:01;0.68;;;0.20;;
58015;SDS011;43809;52.110;20.964;2022-09-01T10:44:10;0.60;;;0.30;;
58015;SDS011;43809;52.110;20.964;2022-09-01T10:50:28;1.42;;;0.30;;
58015;SDS011;43809;52.110;20.964;2022-09-01T10:52:52;1.60;;;0.30;;
58015;SDS011;43809;52.110;20.964;2022-09-01T10:54:55;0.77;;;0.30;;
58015;SDS011;43809;52.110;20.964;2022-09-01T10:56:56;0.32;;;0.13;;
58015;SDS011;43809;52.110;20.964;2022-09-01T11:00:57;0.57;;;0.30;;
58015;SDS011;43809;52.110;20.964;2022-09-01T11:09:20;0.32;;;0.20;;
58015;SDS011;43809;52.110;20.964;2022-09-01T11:11:24;0.65;;;0.22;;
58015;SDS011;43809;52.110;20.964;2022-09-01T11:13:30;0.55;;;0.20;;
58015;SDS011;43809;52.110;20.964;2022-09-01T11:17:37;0.30;;;0.20;;
58015;SDS011;43809;52.110;20.964;2022-09-01T11:21:45;1.25;;;0.22;;
58015;SDS011;43809;52.110;20.964;2022-09-01T11:23:46;0.65;;;0.30;;
58015;SDS011;43809;52.110;20.964;2022-09-01T11:25:47;0.30;;;0.30;;
58015;SDS011;43809;52.110;20.964;2022-09-01T11:30:21;1.10;;;0.30;;
58015;SDS011;43809;52.110;20.964;2022-09-01T11:32:14;0.13;;;0.13;;
58015;SDS011;43809;52.110;20.964;2022-09-01T11:34:17;5.97;;;0.82;;
58015;SDS011;43809;52.110;20.964;2022-09-01T11:41:05;0.35;;;0.20;;
58015;SDS011;43809;52.110;20.964;2022-09-01T11:43:08;0.20;;;0.20;;
58015;SDS011;43809;52.110;20.964;2022-09-01T11:45:28;1.15;;;0.30;;
58015;SDS011;43809;52.110;20.964;2022-09-01T11:47:37;0.30;;;0.30;;
58015;SDS011;43809;52.110;20.964;2022-09-01T11:49:49;0.43;;;0.20;;
58015;SDS011;43809;52.110;20.964;2022-09-01T11:51:50;4.13;;;0.60;;
58015;SDS011;43809;52.110;20.964;2022-09-01T11:53:50;5.20;;;0.63;;
58015;SDS011;43809;52.110;20.964;2022-09-01T11:55:52;2.30;;;0.50;;
58015;SDS011;43809;52.110;20.964;2022-09-01T11:57:52;0.98;;;0.30;;
58015;SDS011;43809;52.110;20.964;2022-09-01T11:59:55;3.10;;;0.50;;
58015;SDS011;43809;52.110;20.964;2022-09-01T12:01:56;1.35;;;0.38;;
58015;SDS011;43809;52.110;20.964;2022-09-01T12:03:57;1.70;;;0.43;;
58015;SDS011;43809;52.110;20.964;2022-09-01T12:05:58;1.20;;;0.30;;
58015;SDS011;43809;52.110;20.964;2022-09-01T12:08:01;1.95;;;0.45;;
58015;SDS011;43809;52.110;20.964;2022-09-01T12:10:02;0.80;;;0.25;;
58015;SDS011;43809;52.110;20.964;2022-09-01T12:12:03;0.65;;;0.40;;
58015;SDS011;43809;52.110;20.964;2022-09-01T12:14:06;0.40;;;0.40;;
58015;SDS011;43809;52.110;20.964;2022-09-01T12:16:08;0.30;;;0.30;;
58015;SDS011;43809;52.110;20.964;2022-09-01T12:18:14;1.17;;;0.47;;
58015;SDS011;43809;52.110;20.964;2022-09-01T12:20:27;0.68;;;0.30;;
58015;SDS011;43809;52.110;20.964;2022-09-01T12:22:28;0.35;;;0.20;;
58015;SDS011;43809;52.110;20.964;2022-09-01T12:24:30;1.23;;;0.40;;
58015;SDS011;43809;52.110;20.964;2022-09-01T12:26:31;4.60;;;0.50;;
58015;SDS011;43809;52.110;20.964;2022-09-01T12:28:32;0.93;;;0.43;;
58015;SDS011;43809;52.110;20.964;2022-09-01T12:30:33;0.88;;;0.38;;
58015;SDS011;43809;52.110;20.964;2022-09-01T12:32:38;2.15;;;0.32;;
58015;SDS011;43809;52.110;20.964;2022-09-01T12:34:40;1.23;;;0.30;;
58015;SDS011;43809;52.110;20.964;2022-09-01T12:39:21;2.45;;;0.68;;
58015;SDS011;43809;52.110;20.964;2022-09-01T12:41:32;1.40;;;0.50;;
58015;SDS011;43809;52.110;20.964;2022-09-01T12:43:34;0.20;;;0.20;;
58015;SDS011;43809;52.110;20.964;2022-09-01T12:45:42;4.25;;;0.55;;
58015;SDS011;43809;52.110;20.964;2022-09-01T12:47:44;2.53;;;0.40;;
58015;SDS011;43809;52.110;20.964;2022-09-01T12:49:48;0.30;;;0.25;;
58015;SDS011;43809;52.110;20.964;2022-09-01T12:54:07;0.28;;;0.20;;
58015;SDS011;43809;52.110;20.964;2022-09-01T12:56:17;2.83;;;0.40;;
58015;SDS011;43809;52.110;20.964;2022-09-01T12:58:19;0.35;;;0.20;;
58015;SDS011;43809;52.110;20.964;2022-09-01T13:00:21;0.67;;;0.40;;
58015;SDS011;43809;52.110;20.964;2022-09-01T13:06:26;1.67;;;0.50;;
58015;SDS011;43809;52.110;20.964;2022-09-01T13:08:30;8.47;;;1.20;;
58015;SDS011;43809;52.110;20.964;2022-09-01T13:10:33;0.85;;;0.38;;
58015;SDS011;43809;52.110;20.964;2022-09-01T13:12:40;1.45;;;0.70;;
58015;SDS011;43809;52.110;20.964;2022-09-01T13:14:40;2.33;;;0.40;;
58015;SDS011;43809;52.110;20.964;2022-09-01T13:16:41;1.10;;;0.30;;
58015;SDS011;43809;52.110;20.964;2022-09-01T13:18:41;1.95;;;0.40;;
58015;SDS011;43809;52.110;20.964;2022-09-01T13:20:45;0.52;;;0.35;;